createdAt,value
2019-04-06T00:01:51.971Z,96.50
2019-04-06T00:04:17.496Z,104.00
2019-04-06T00:06:43.021Z,107.97
2019-04-06T00:09:08.609Z,105.43
2019-04-06T00:11:34.123Z,97.30
2019-04-06T00:13:59.698Z,92.03
2019-04-06T00:16:30.340Z,93.50
2019-04-06T00:18:57.814Z,87.33
2019-04-06T00:21:23.323Z,88.53
2019-04-06T00:23:48.988Z,103.17
2019-04-06T00:26:14.607Z,105.37
2019-04-06T00:28:40.142Z,95.70
2019-04-06T00:31:19.497Z,95.63
2019-04-06T00:33:45.313Z,97.30
2019-04-06T00:36:10.839Z,90.57
2019-04-06T00:38:36.431Z,98.83
2019-04-06T00:41:02.027Z,92.33
2019-04-06T00:43:27.538Z,98.47
2019-04-06T00:45:53.051Z,98.57
2019-04-06T00:48:18.671Z,107.73
2019-04-06T00:50:44.255Z,102.07
2019-04-06T00:53:09.774Z,115.93
2019-04-06T00:55:35.438Z,112.13
2019-04-06T00:58:01.196Z,102.83
2019-04-06T01:00:26.873Z,103.43
2019-04-06T01:02:52.595Z,98.73
2019-04-06T01:05:18.142Z,102.43
2019-04-06T01:07:43.810Z,100.90
2019-04-06T01:10:09.571Z,97.90
2019-04-06T01:12:35.234Z,104.67
2019-04-06T01:15:00.891Z,101.17
2019-04-06T01:17:26.448Z,239.73
2019-04-06T01:19:51.979Z,116.57
2019-04-06T01:22:17.528Z,114.23
2019-04-06T01:24:43.059Z,131.77
2019-04-06T01:27:08.807Z,121.53
2019-04-06T01:29:34.378Z,122.60
2019-04-06T01:31:59.951Z,128.43
2019-04-06T01:34:25.503Z,126.97
2019-04-06T01:36:51.369Z,129.43
2019-04-06T01:39:17.000Z,124.03
2019-04-06T01:41:42.612Z,128.63
2019-04-06T01:44:08.181Z,121.97
2019-04-06T01:46:33.698Z,130.17
2019-04-06T01:48:59.263Z,133.33
2019-04-06T01:51:24.813Z,122.03
2019-04-06T01:53:50.385Z,122.13
2019-04-06T01:56:18.676Z,128.77
2019-04-06T01:58:43.357Z,121.73
2019-04-06T02:01:19.802Z,121.37
2019-04-06T02:03:45.351Z,119.73
2019-04-06T02:06:10.887Z,121.10
2019-04-06T02:08:36.430Z,124.77
2019-04-06T02:11:01.962Z,132.07
2019-04-06T02:13:27.530Z,124.87
2019-04-06T02:15:53.076Z,119.60
2019-04-06T02:18:18.588Z,122.80
2019-04-06T02:20:44.103Z,122.77
2019-04-06T02:23:09.731Z,130.57
2019-04-06T02:25:35.249Z,140.30
2019-04-06T02:28:00.844Z,132.23
2019-04-06T02:30:28.354Z,133.27
2019-04-06T02:33:07.789Z,130.73
2019-04-06T02:35:41.060Z,131.40
2019-04-06T02:38:08.494Z,121.60
2019-04-06T02:40:44.756Z,128.60
2019-04-06T02:43:12.188Z,130.87
2019-04-06T02:45:37.697Z,126.37
2019-04-06T02:48:03.317Z,114.23
2019-04-06T02:50:28.914Z,121.73
2019-04-06T02:52:54.513Z,119.83
2019-04-06T02:55:20.064Z,119.97
2019-04-06T02:57:45.609Z,126.43
2019-04-06T03:00:11.229Z,120.77
2019-04-06T03:02:37.004Z,118.17
2019-04-06T03:05:05.642Z,117.67
2019-04-06T03:07:31.188Z,116.00
2019-04-06T03:09:56.802Z,111.90
2019-04-06T03:12:22.377Z,123.53
2019-04-06T03:14:48.208Z,121.33
2019-04-06T03:17:13.816Z,118.10
2019-04-06T03:19:39.371Z,109.33
2019-04-06T03:22:05.360Z,127.53
2019-04-06T03:24:31.013Z,125.77
2019-04-06T03:27:02.250Z,125.43
2019-04-06T03:29:24.108Z,114.23
2019-04-06T03:31:49.629Z,112.03
2019-04-06T03:34:20.479Z,110.00
2019-04-06T03:36:42.656Z,113.90
2019-04-06T03:39:08.292Z,123.47
2019-04-06T03:41:34.144Z,116.37
2019-04-06T03:43:59.742Z,116.80
2019-04-06T03:46:25.284Z,109.97
2019-04-06T03:48:50.799Z,109.23
2019-04-06T03:51:16.490Z,117.90
2019-04-06T03:53:42.075Z,119.87
2019-04-06T03:56:07.639Z,119.70
2019-04-06T03:58:33.315Z,117.10
2019-04-06T04:00:58.857Z,117.27
2019-04-06T04:03:24.404Z,109.30
2019-04-06T04:05:49.933Z,121.30
2019-04-06T04:08:15.531Z,122.60
2019-04-06T04:10:41.123Z,118.80
2019-04-06T04:13:06.860Z,113.43
2019-04-06T04:15:32.498Z,119.90
2019-04-06T04:17:59.010Z,109.33
2019-04-06T04:20:24.636Z,126.47
2019-04-06T04:22:50.154Z,113.27
2019-04-06T04:25:15.891Z,125.07
2019-04-06T04:27:41.417Z,110.40
2019-04-06T04:30:07.120Z,109.60
2019-04-06T04:32:32.804Z,105.33
2019-04-06T04:34:58.421Z,117.10
2019-04-06T04:37:24.148Z,116.37
2019-04-06T04:39:50.156Z,114.40
2019-04-06T04:42:15.843Z,113.07
2019-04-06T04:44:41.557Z,103.20
2019-04-06T04:47:07.236Z,111.77
2019-04-06T04:49:32.838Z,121.17
2019-04-06T04:51:58.392Z,113.97
2019-04-06T04:54:23.907Z,110.20
2019-04-06T04:56:49.455Z,111.33
2019-04-06T04:59:15.003Z,117.87
2019-04-06T05:01:40.534Z,122.40
2019-04-06T05:04:06.058Z,120.10
2019-04-06T05:06:31.611Z,127.73
2019-04-06T05:08:57.231Z,120.83
2019-04-06T05:11:22.945Z,122.60
2019-04-06T05:13:48.495Z,122.87
2019-04-06T05:16:14.122Z,124.67
2019-04-06T05:18:40.371Z,133.83
2019-04-06T05:21:06.171Z,123.93
2019-04-06T05:23:31.692Z,127.53
2019-04-06T05:25:57.216Z,118.03
2019-04-06T05:28:22.753Z,125.80
2019-04-06T05:30:48.311Z,127.90
2019-04-06T05:33:13.926Z,120.83
2019-04-06T05:35:39.634Z,120.60
2019-04-06T05:38:05.431Z,115.40
2019-04-06T05:40:31.347Z,116.17
2019-04-06T05:42:56.912Z,115.93
2019-04-06T05:45:22.683Z,121.90
2019-04-06T05:47:48.557Z,120.13
2019-04-06T05:50:14.219Z,117.63
2019-04-06T05:52:39.790Z,116.67
2019-04-06T05:55:05.443Z,112.80
2019-04-06T05:57:32.203Z,109.37
2019-04-06T05:59:58.411Z,107.43
2019-04-06T06:02:23.932Z,116.93
2019-04-06T06:04:50.651Z,119.77
2019-04-06T06:07:16.219Z,119.57
2019-04-06T06:09:41.787Z,111.80
2019-04-06T06:12:09.288Z,119.90
2019-04-06T06:14:34.901Z,119.20
2019-04-06T06:17:00.475Z,122.70
2019-04-06T06:19:26.031Z,117.87
2019-04-06T06:21:51.882Z,110.43
2019-04-06T06:24:17.636Z,122.10
2019-04-06T06:26:44.881Z,115.47
2019-04-06T06:29:10.556Z,140.40
2019-04-06T06:31:36.264Z,136.33
2019-04-06T06:34:01.856Z,122.93
2019-04-06T06:36:27.434Z,120.70
2019-04-06T06:38:52.991Z,133.10
2019-04-06T06:41:18.526Z,129.83
2019-04-06T06:43:45.253Z,126.40
2019-04-06T06:46:11.071Z,134.60
2019-04-06T06:48:36.587Z,135.87
2019-04-06T06:51:02.236Z,136.23
2019-04-06T06:53:28.037Z,142.00
2019-04-06T06:55:54.006Z,139.90
2019-04-06T06:58:25.379Z,133.13
2019-04-06T07:00:47.379Z,140.00
2019-04-06T07:03:13.303Z,145.40
2019-04-06T07:05:39.383Z,138.90
2019-04-06T07:08:05.132Z,139.07
2019-04-06T07:10:30.832Z,138.73
2019-04-06T07:12:56.487Z,128.90
2019-04-06T07:15:22.045Z,128.17
2019-04-06T07:17:47.810Z,128.33
2019-04-06T07:20:13.763Z,135.40
2019-04-06T07:22:39.276Z,124.80
2019-04-06T07:25:05.119Z,122.83
2019-04-06T07:27:30.658Z,130.63
2019-04-06T07:29:56.196Z,119.43
2019-04-06T07:32:22.738Z,143.43
2019-04-06T07:34:48.304Z,114.20
2019-04-06T07:37:13.899Z,110.43
2019-04-06T07:39:40.478Z,121.50
2019-04-06T07:42:06.018Z,110.50
2019-04-06T07:44:31.313Z,110.73
2019-04-06T07:46:56.612Z,103.70
2019-04-06T07:49:21.952Z,100.20
2019-04-06T07:51:47.331Z,110.53
2019-04-06T07:54:12.687Z,95.93
2019-04-06T07:56:37.886Z,99.23
2019-04-06T07:59:03.214Z,95.20
2019-04-06T08:01:28.535Z,94.57
2019-04-06T08:03:53.683Z,95.50
2019-04-06T08:06:19.271Z,99.97
2019-04-06T08:08:45.098Z,100.33
2019-04-06T08:11:10.383Z,98.53
2019-04-06T08:13:35.531Z,92.23
2019-04-06T08:16:00.883Z,98.63
2019-04-06T08:18:26.199Z,107.50
2019-04-06T08:20:51.847Z,99.13
2019-04-06T08:23:17.395Z,103.73
2019-04-06T08:25:42.952Z,108.90
2019-04-06T08:28:08.552Z,103.37
2019-04-06T08:30:44.816Z,98.20
2019-04-06T08:33:01.936Z,95.37
2019-04-06T08:35:27.624Z,91.27
2019-04-06T08:37:53.204Z,92.17
2019-04-06T08:40:18.816Z,100.30
2019-04-06T08:42:45.346Z,105.97
2019-04-06T08:45:10.988Z,90.07
2019-04-06T08:47:36.675Z,92.57
2019-04-06T08:50:03.779Z,89.43
2019-04-06T08:52:29.303Z,95.33
2019-04-06T08:54:54.875Z,100.67
2019-04-06T08:57:22.512Z,99.03
2019-04-06T08:59:48.077Z,92.43
2019-04-06T09:02:13.619Z,96.33
2019-04-06T09:04:39.270Z,89.00
2019-04-06T09:07:06.799Z,90.97
2019-04-06T09:09:33.175Z,88.80
2019-04-06T09:11:59.207Z,89.80
2019-04-06T09:14:26.767Z,91.33
2019-04-06T09:16:52.419Z,96.43
2019-04-06T09:19:17.968Z,93.73
2019-04-06T09:21:43.483Z,89.17
2019-04-06T09:24:09.014Z,88.57
2019-04-06T09:26:34.528Z,93.33
2019-04-06T09:29:00.039Z,94.37
2019-04-06T09:31:25.696Z,102.00
2019-04-06T09:33:51.199Z,93.40
2019-04-06T09:36:17.902Z,98.30
2019-04-06T09:38:43.520Z,95.00
2019-04-06T09:41:09.116Z,88.60
2019-04-06T09:43:34.720Z,92.20
2019-04-06T09:46:08.287Z,83.20
2019-04-06T09:48:47.560Z,90.57
2019-04-06T09:51:26.568Z,97.57
2019-04-06T09:54:06.308Z,90.20
2019-04-06T09:56:46.486Z,95.90
2019-04-06T09:59:34.262Z,90.67
2019-04-06T10:01:54.065Z,94.87
2019-04-06T10:04:37.919Z,86.40
2019-04-06T10:07:11.312Z,95.53
2019-04-06T10:09:50.722Z,79.63
2019-04-06T10:12:34.572Z,87.70
2019-04-06T10:15:05.120Z,93.50
2019-04-06T10:17:49.207Z,88.37
2019-04-06T10:20:28.170Z,98.10
2019-04-06T10:22:55.727Z,95.13
2019-04-06T10:25:39.631Z,85.07
2019-04-06T10:28:16.232Z,93.80
2019-04-06T10:30:43.777Z,87.53
2019-04-06T10:33:11.069Z,75.63
2019-04-06T10:35:41.233Z,81.27
2019-04-06T10:38:11.251Z,72.13
2019-04-06T10:40:47.449Z,79.80
2019-04-06T10:43:14.631Z,88.97
2019-04-06T10:46:00.081Z,79.70
2019-04-06T10:48:39.097Z,84.17
2019-04-06T10:51:22.791Z,79.43
2019-04-06T10:53:58.655Z,84.93
2019-04-06T10:56:28.848Z,77.40
2019-04-06T10:58:55.911Z,72.63
2019-04-06T11:01:39.178Z,71.37
2019-04-06T11:04:06.684Z,65.47
2019-04-06T11:06:33.804Z,76.87
2019-04-06T11:09:10.119Z,75.30
2019-04-06T11:11:52.291Z,80.20
2019-04-06T11:14:32.292Z,65.60
2019-04-06T11:17:15.858Z,73.40
2019-04-06T11:19:48.710Z,72.00
2019-04-06T11:22:32.379Z,73.30
2019-04-06T11:25:17.449Z,74.97
2019-04-06T11:27:48.243Z,71.00
2019-04-06T11:30:32.345Z,74.53
2019-04-06T11:32:59.833Z,63.03
2019-04-06T11:35:27.296Z,62.00
2019-04-06T11:37:54.431Z,53.40
2019-04-06T11:40:21.499Z,54.50
2019-04-06T11:43:05.092Z,53.17
2019-04-06T11:45:32.412Z,55.20
2019-04-06T11:48:02.819Z,55.50
2019-04-06T11:50:29.902Z,59.97
2019-04-06T11:53:00.114Z,59.83
2019-04-06T11:55:36.115Z,57.93
2019-04-06T11:58:05.946Z,56.60
2019-04-06T12:00:49.513Z,55.17
2019-04-06T12:03:19.779Z,55.30
2019-04-06T12:05:46.866Z,58.40
2019-04-06T12:08:30.663Z,54.60
2019-04-06T12:11:04.030Z,46.97
2019-04-06T12:13:34.727Z,52.97
2019-04-06T12:16:01.897Z,53.73
2019-04-06T12:18:44.079Z,56.87
2019-04-06T12:21:11.283Z,56.30
2019-04-06T12:23:54.575Z,53.50
2019-04-06T12:26:31.114Z,51.53
2019-04-06T12:28:58.740Z,49.53
2019-04-06T12:31:37.926Z,55.43
2019-04-06T12:34:07.870Z,57.47
2019-04-06T12:36:51.927Z,61.13
2019-04-06T12:39:19.639Z,61.03
2019-04-06T12:41:58.760Z,57.20
2019-04-06T12:44:34.569Z,55.80
2019-04-06T12:47:18.445Z,57.17
2019-04-06T12:49:45.668Z,47.23
2019-04-06T12:52:19.039Z,41.67
2019-04-06T12:54:49.090Z,46.70
2019-04-06T12:57:19.026Z,36.73
2019-04-06T12:59:54.602Z,48.53
2019-04-06T13:02:22.120Z,45.40
2019-04-06T13:05:08.677Z,42.67
2019-04-06T13:07:42.073Z,46.50
2019-04-06T13:10:27.391Z,45.90
2019-04-06T13:12:54.468Z,42.13
2019-04-06T13:15:25.339Z,46.37
2019-04-06T13:18:08.879Z,40.00
2019-04-06T13:20:44.980Z,33.23
2019-04-06T13:23:18.228Z,35.27
2019-04-06T13:25:45.292Z,45.27
2019-04-06T13:28:21.759Z,40.23
2019-04-06T13:31:05.410Z,35.90
2019-04-06T13:33:41.741Z,28.80
2019-04-06T13:36:11.663Z,29.80
2019-04-06T13:38:55.075Z,24.50
2019-04-06T13:41:38.505Z,29.53
2019-04-06T13:44:06.033Z,35.40
2019-04-06T13:46:33.236Z,27.27
2019-04-06T13:49:02.859Z,26.57
2019-04-06T13:51:33.113Z,28.40
2019-04-06T13:54:08.848Z,25.77
2019-04-06T13:56:38.581Z,23.73
2019-04-06T13:59:14.795Z,25.20
2019-04-06T14:01:47.724Z,24.60
2019-04-06T14:04:32.706Z,27.40
2019-04-06T14:07:16.561Z,24.83
2019-04-06T14:10:01.614Z,28.80
2019-04-06T14:12:28.815Z,27.87
2019-04-06T14:14:55.954Z,30.43
2019-04-06T14:17:32.622Z,28.20
2019-04-06T14:20:09.154Z,22.30
2019-04-06T14:22:42.711Z,24.60
2019-04-06T14:25:10.487Z,26.63
2019-04-06T14:27:53.777Z,28.13
2019-04-06T14:30:38.247Z,32.97
2019-04-06T14:33:20.182Z,24.17
2019-04-06T14:36:03.694Z,29.87
2019-04-06T14:38:31.240Z,23.10
2019-04-06T14:41:16.465Z,23.03
2019-04-06T14:43:55.592Z,22.13
2019-04-06T14:46:23.266Z,20.07
2019-04-06T14:49:13.942Z,20.40
2019-04-06T14:51:53.837Z,18.03
2019-04-06T14:54:21.462Z,22.10
2019-04-06T14:57:04.013Z,20.70
2019-04-06T14:59:31.282Z,26.03
2019-04-06T15:02:04.501Z,19.60
2019-04-06T15:04:43.687Z,17.93
2019-04-06T15:07:18.766Z,25.63
2019-04-06T15:09:50.062Z,21.93
2019-04-06T15:12:19.758Z,31.10
2019-04-06T15:15:01.892Z,20.63
2019-04-06T15:17:29.207Z,24.20
2019-04-06T15:20:05.441Z,26.10
2019-04-06T15:22:35.370Z,30.23
2019-04-06T15:25:11.451Z,27.20
2019-04-06T15:27:44.298Z,25.40
2019-04-06T15:30:11.722Z,20.73
2019-04-06T15:32:39.116Z,19.37
2019-04-06T15:35:07.326Z,18.90
2019-04-06T15:37:46.412Z,20.43
2019-04-06T15:40:20.682Z,22.57
2019-04-06T15:43:04.366Z,25.67
2019-04-06T15:45:46.339Z,31.47
2019-04-06T15:48:13.403Z,32.63
2019-04-06T15:50:57.477Z,35.00
2019-04-06T15:53:36.415Z,40.77
2019-04-06T15:56:03.500Z,35.50
2019-04-06T15:58:30.628Z,47.17
2019-04-06T16:01:15.850Z,46.00
2019-04-06T16:03:42.917Z,50.37
2019-04-06T16:06:15.778Z,44.73
2019-04-06T16:08:59.265Z,40.93
2019-04-06T16:11:38.860Z,409.37
2019-04-06T16:14:26.679Z,45.33
2019-04-06T16:16:58.021Z,62.83
2019-04-06T16:19:25.487Z,146.93
2019-04-06T16:22:07.743Z,61.33
2019-04-06T16:24:36.325Z,74.23
2019-04-06T16:27:09.691Z,55.70
2019-04-06T16:29:40.490Z,74.83
2019-04-06T16:32:12.757Z,84.70
2019-04-06T16:34:49.513Z,39.10
2019-04-06T16:37:17.060Z,62.97
2019-04-06T16:39:44.778Z,46.67
2019-04-06T16:42:23.993Z,42.97
2019-04-06T16:44:54.311Z,45.03
2019-04-06T16:47:21.758Z,45.73
2019-04-06T16:49:49.204Z,39.67
2019-04-06T16:52:19.421Z,58.10
2019-04-06T16:55:03.163Z,47.27
2019-04-06T16:57:30.926Z,45.80
2019-04-06T17:00:17.099Z,44.83
2019-04-06T17:02:45.621Z,45.90
2019-04-06T17:05:31.441Z,43.10
2019-04-06T17:08:11.151Z,46.23
2019-04-06T17:10:43.158Z,52.70
2019-04-06T17:13:16.686Z,48.23
2019-04-06T17:15:44.551Z,47.30
2019-04-06T17:18:23.794Z,49.03
2019-04-06T17:20:54.242Z,48.27
2019-04-06T17:23:34.584Z,45.00
2019-04-06T17:26:02.084Z,53.33
2019-04-06T17:28:29.862Z,51.27
2019-04-06T17:31:00.225Z,45.80
2019-04-06T17:33:30.633Z,55.53
2019-04-06T17:36:15.977Z,48.63
2019-04-06T17:38:46.573Z,47.37
2019-04-06T17:41:17.221Z,47.90
2019-04-06T17:43:47.631Z,46.43
2019-04-06T17:46:32.142Z,47.10
2019-04-06T17:49:15.891Z,55.00
2019-04-06T17:52:00.874Z,50.60
2019-04-06T17:54:45.625Z,46.47
2019-04-06T17:57:18.875Z,46.80
2019-04-06T18:00:04.441Z,47.23
2019-04-06T18:02:48.703Z,59.27
2019-04-06T18:05:20.836Z,45.87
2019-04-06T18:07:50.998Z,51.77
2019-04-06T18:10:21.855Z,56.70
2019-04-06T18:12:49.634Z,57.40
2019-04-06T18:15:15.457Z,45.70
2019-04-06T18:17:41.011Z,58.80
2019-04-06T18:20:07.307Z,53.20
2019-04-06T18:22:33.498Z,55.30
2019-04-06T18:24:59.126Z,56.73
2019-04-06T18:27:27.410Z,57.20
2019-04-06T18:29:53.447Z,59.53
2019-04-06T18:32:32.963Z,59.80
2019-04-06T18:34:58.644Z,60.80
2019-04-06T18:37:26.179Z,58.97
2019-04-06T18:39:54.695Z,65.60
2019-04-06T18:42:20.840Z,57.70
2019-04-06T18:44:46.626Z,59.97
2019-04-06T18:47:12.314Z,54.63
2019-04-06T18:49:38.007Z,50.93
2019-04-06T18:52:04.091Z,57.57
2019-04-06T18:54:30.194Z,50.87
2019-04-06T18:56:56.150Z,57.17
2019-04-06T18:59:21.772Z,60.17
2019-04-06T19:01:47.336Z,58.40
2019-04-06T19:04:13.198Z,60.90
2019-04-06T19:06:38.940Z,56.60
2019-04-06T19:09:11.075Z,55.60
2019-04-06T19:11:34.698Z,51.10
2019-04-06T19:14:00.568Z,59.73
2019-04-06T19:16:26.327Z,69.23
2019-04-06T19:18:52.084Z,56.70
2019-04-06T19:21:17.807Z,58.53
2019-04-06T19:23:43.551Z,61.20
2019-04-06T19:26:09.433Z,68.93
2019-04-06T19:28:35.006Z,63.97
2019-04-06T19:31:00.924Z,65.60
2019-04-06T19:33:27.258Z,69.53
2019-04-06T19:35:53.666Z,68.97
2019-04-06T19:38:19.633Z,62.57
2019-04-06T19:40:45.340Z,61.03
2019-04-06T19:43:10.914Z,64.87
2019-04-06T19:45:38.403Z,54.77
2019-04-06T19:48:04.647Z,56.90
2019-04-06T19:50:30.551Z,60.40
2019-04-06T19:52:56.301Z,63.30
2019-04-06T19:55:25.567Z,60.03
2019-04-06T19:57:51.697Z,60.07
2019-04-06T20:00:17.831Z,68.50
2019-04-06T20:02:43.558Z,72.23
2019-04-06T20:05:10.612Z,72.00
2019-04-06T20:07:36.567Z,64.87
2019-04-06T20:10:03.574Z,65.50
2019-04-06T20:12:29.239Z,68.80
2019-04-06T20:14:55.181Z,68.43
2019-04-06T20:17:20.879Z,68.37
2019-04-06T20:19:46.549Z,63.90
2019-04-06T20:22:12.693Z,68.90
2019-04-06T20:24:38.326Z,67.77
2019-04-06T20:27:03.915Z,61.80
2019-04-06T20:29:29.531Z,70.93
2019-04-06T20:31:55.236Z,71.73
2019-04-06T20:34:20.842Z,68.80
2019-04-06T20:36:46.403Z,71.03
2019-04-06T20:39:11.988Z,80.23
2019-04-06T20:41:37.552Z,70.07
2019-04-06T20:44:03.214Z,66.13
2019-04-06T20:46:28.775Z,64.83
2019-04-06T20:48:54.350Z,66.37
2019-04-06T20:51:19.861Z,68.67
2019-04-06T20:53:45.429Z,68.73
2019-04-06T20:56:11.044Z,64.97
2019-04-06T20:58:36.657Z,68.23
2019-04-06T21:01:02.739Z,66.90
2019-04-06T21:03:28.440Z,70.17
2019-04-06T21:05:54.063Z,65.93
2019-04-06T21:08:20.078Z,66.70
2019-04-06T21:10:45.834Z,69.97
2019-04-06T21:13:11.548Z,71.63
2019-04-06T21:15:37.196Z,71.97
2019-04-06T21:18:02.756Z,64.90
2019-04-06T21:20:28.682Z,70.23
2019-04-06T21:22:54.275Z,70.07
2019-04-06T21:25:19.818Z,76.90
2019-04-06T21:27:46.507Z,72.13
2019-04-06T21:30:15.119Z,70.10
2019-04-06T21:32:41.428Z,74.13
2019-04-06T21:35:10.213Z,67.57
2019-04-06T21:37:35.914Z,64.10
2019-04-06T21:40:02.339Z,69.63
2019-04-06T21:42:29.615Z,68.10
2019-04-06T21:44:55.825Z,71.00
2019-04-06T21:47:21.974Z,64.80
2019-04-06T21:49:48.003Z,63.87
2019-04-06T21:52:13.532Z,69.73
2019-04-06T21:54:39.735Z,63.03
2019-04-06T21:57:05.309Z,67.43
2019-04-06T21:59:31.145Z,72.57
2019-04-06T22:01:58.012Z,75.73
2019-04-06T22:04:26.719Z,70.73
2019-04-06T22:06:51.640Z,64.13
2019-04-06T22:09:18.638Z,69.20
2019-04-06T22:11:44.590Z,62.67
2019-04-06T22:14:10.149Z,70.17
2019-04-06T22:16:35.715Z,66.10
2019-04-06T22:19:01.378Z,67.60
2019-04-06T22:21:27.117Z,67.40
2019-04-06T22:23:53.472Z,61.23
2019-04-06T22:26:19.361Z,70.23
2019-04-06T22:28:45.065Z,60.60
2019-04-06T22:31:10.951Z,78.23
2019-04-06T22:33:36.556Z,62.13
2019-04-06T22:36:02.189Z,63.77
2019-04-06T22:38:28.176Z,66.90
2019-04-06T22:40:53.775Z,62.13
2019-04-06T22:43:19.330Z,63.70
2019-04-06T22:45:45.391Z,71.67
2019-04-06T22:48:11.923Z,66.13
2019-04-06T22:50:38.199Z,63.37
2019-04-06T22:53:03.902Z,62.03
2019-04-06T22:55:29.824Z,68.17
2019-04-06T22:57:55.742Z,61.40
2019-04-06T23:00:26.075Z,68.27
2019-04-06T23:03:11.700Z,69.37
2019-04-06T23:05:39.203Z,62.23
2019-04-06T23:08:04.767Z,58.33
2019-04-06T23:10:30.489Z,62.37
2019-04-06T23:12:56.458Z,66.43
2019-04-06T23:15:22.125Z,64.40
2019-04-06T23:17:47.727Z,60.33
2019-04-06T23:20:13.408Z,67.47
2019-04-06T23:22:39.484Z,72.93
2019-04-06T23:25:05.235Z,61.63
2019-04-06T23:27:30.828Z,68.27
2019-04-06T23:29:56.395Z,61.23
2019-04-06T23:32:21.948Z,65.17
2019-04-06T23:34:57.807Z,70.50
2019-04-06T23:37:15.136Z,58.60
2019-04-06T23:39:41.207Z,62.33
2019-04-06T23:42:06.911Z,65.20
2019-04-06T23:44:32.990Z,56.00
2019-04-06T23:46:58.812Z,63.50
2019-04-06T23:49:24.739Z,62.73
2019-04-06T23:51:50.836Z,65.17
2019-04-06T23:54:16.487Z,63.00
2019-04-06T23:56:41.990Z,64.73
2019-04-06T23:59:07.531Z,61.67
